West Harrison, Indiana
Current Conditions -  °F | °C
As of 12:15 AM on Saturday 29 Nov 2014 (Local Time) from KI67 Reporting Station
Clear Clear  
Wind Chill: 32°   Ceiling: Unl
Heat Index: 32°   Visibility: 10mi
Dew Point: 21°   Wind: 0mph
Humidity: 64%   Direction: NA
Pressure: 30.08"   Gusts: NA
Location:  39.26°N, 84.82°W
Report Text: KI67 290515Z AUTO 00000KT 10SM CLR 00/M06 A3008 RMK AO1
Loading
Personal Weather Stations






























Interactive Weather Map New forecast layout! Learn more

10-Day Weather Forecast

Advertisements
Track Severe Weather on mobile